Time;durP1;ratioP1;P1;durP2;ratioP2;P2;SDS_P1;SDS_P2;PMS_P1;PMS_P2;Temp;Humidity;BMP_temperature;BMP_pressure;BME280_temperature;BME280_humidity;BME280_pressure;Samples;Min_cycle;Max_cycle;Signal;HPM_P1;HPM_P2
2023/07/16 00:02:04;;;;;;;5.70;3.08;;;18.60;99.90;;;;;;5020585;28;20052;-62
2023/07/16 00:04:31;;;;;;;7.20;3.03;;;18.60;99.90;;;;;;5022552;28;20088;-62
2023/07/16 00:06:56;;;;;;;7.40;3.15;;;18.60;99.90;;;;;;5006476;28;20041;-62
2023/07/16 00:09:22;;;;;;;6.10;3.53;;;18.50;99.90;;;;;;5011172;28;20061;-62
2023/07/16 00:11:48;;;;;;;6.13;2.90;;;18.50;99.90;;;;;;5009641;28;20042;-62
2023/07/16 00:14:13;;;;;;;6.72;3.20;;;18.50;99.90;;;;;;5021776;28;20042;-62
2023/07/16 00:16:39;;;;;;;5.07;2.47;;;18.40;99.90;;;;;;5009185;28;20099;-62
2023/07/16 00:19:04;;;;;;;4.55;2.63;;;18.40;99.90;;;;;;5008726;28;20037;-62
2023/07/16 00:21:30;;;;;;;6.82;2.50;;;18.40;99.90;;;;;;5013765;28;20034;-62
2023/07/16 00:23:56;;;;;;;6.53;2.60;;;18.30;99.90;;;;;;5005094;28;20038;-62
2023/07/16 00:26:21;;;;;;;6.03;2.53;;;18.30;99.90;;;;;;5010400;28;20498;-62
2023/07/16 00:28:47;;;;;;;6.07;2.35;;;18.30;99.90;;;;;;5011027;28;20069;-62
2023/07/16 00:31:13;;;;;;;6.68;2.67;;;18.30;99.90;;;;;;5018356;28;20121;-62
2023/07/16 00:33:38;;;;;;;4.57;2.20;;;18.20;99.90;;;;;;5026555;28;20061;-62
2023/07/16 00:36:04;;;;;;;7.28;2.88;;;18.20;99.90;;;;;;5023989;28;20034;-62
2023/07/16 00:38:30;;;;;;;7.25;2.60;;;18.20;99.90;;;;;;5006767;28;20034;-62
2023/07/16 00:40:56;;;;;;;4.93;2.22;;;18.20;99.90;;;;;;5011370;28;20034;-62
2023/07/16 00:43:22;;;;;;;8.35;2.63;;;18.10;99.90;;;;;;5010862;28;20177;-62
2023/07/16 00:45:48;;;;;;;6.38;2.85;;;18.10;99.90;;;;;;5043135;28;20540;-62
2023/07/16 00:48:14;;;;;;;6.32;2.63;;;18.10;99.90;;;;;;5008010;28;20407;-62
2023/07/16 00:50:41;;;;;;;5.10;2.40;;;18.00;99.90;;;;;;5009019;28;20038;-62
2023/07/16 00:53:10;;;;;;;6.63;2.70;;;18.00;99.90;;;;;;5019080;28;20048;-62
2023/07/16 00:55:36;;;;;;;7.55;2.65;;;18.00;99.90;;;;;;5001583;28;20053;-62
2023/07/16 00:58:05;;;;;;;5.97;2.90;;;18.00;99.90;;;;;;5006617;28;20049;-62
2023/07/16 01:00:35;;;;;;;6.93;2.30;;;17.90;99.90;;;;;;5017233;28;20055;-62
2023/07/16 01:03:10;;;;;;;9.02;2.65;;;17.80;99.90;;;;;;5030702;28;20492;-62
2023/07/16 01:05:54;;;;;;;5.65;2.65;;;17.80;99.90;;;;;;5023994;28;20038;-62
2023/07/16 01:08:38;;;;;;;6.97;3.00;;;17.80;99.90;;;;;;5007024;28;20046;-62
2023/07/16 01:11:04;;;;;;;5.18;2.65;;;17.80;99.90;;;;;;5007533;28;20087;-62
2023/07/16 01:13:31;;;;;;;7.70;3.05;;;17.80;99.90;;;;;;5016673;28;20041;-62
2023/07/16 01:15:57;;;;;;;9.32;3.38;;;17.80;99.90;;;;;;5024256;28;20038;-62
2023/07/16 01:18:23;;;;;;;9.50;3.78;;;17.70;99.90;;;;;;5017889;28;20372;-62
2023/07/16 01:20:48;;;;;;;7.25;3.22;;;17.70;99.90;;;;;;5021418;28;20034;-62
2023/07/16 01:23:33;;;;;;;7.47;3.30;;;17.70;99.90;;;;;;5006818;28;20112;-62
2023/07/16 01:26:07;;;;;;;10.52;3.80;;;17.70;99.90;;;;;;5007126;28;20037;-62
2023/07/16 01:29:07;;;;;;;7.53;3.20;;;17.70;99.90;;;;;;5010903;28;20145;-62
2023/07/16 01:31:33;;;;;;;9.63;3.45;;;17.70;99.90;;;;;;5009672;28;20045;-62
2023/07/16 01:34:00;;;;;;;9.52;3.88;;;17.70;99.90;;;;;;5007854;28;20042;-62
2023/07/16 01:36:28;;;;;;;6.63;3.38;;;17.60;99.90;;;;;;5011111;28;20521;-62
2023/07/16 01:38:53;;;;;;;7.32;2.83;;;17.60;99.90;;;;;;5014866;28;20041;-62
2023/07/16 01:41:19;;;;;;;9.32;3.33;;;17.60;99.90;;;;;;5016383;28;20039;-62
2023/07/16 01:43:45;;;;;;;9.73;3.55;;;17.50;99.90;;;;;;5010218;28;20045;-62
2023/07/16 01:46:11;;;;;;;7.05;3.20;;;17.50;99.90;;;;;;5021887;28;20030;-62
2023/07/16 01:48:37;;;;;;;8.15;2.85;;;17.50;99.90;;;;;;5018261;28;20034;-62
2023/07/16 01:51:03;;;;;;;8.18;3.10;;;17.50;99.90;;;;;;5004373;28;20107;-62
2023/07/16 01:53:29;;;;;;;10.15;3.13;;;17.40;99.90;;;;;;5017230;28;20380;-62
2023/07/16 01:55:55;;;;;;;8.70;3.17;;;17.50;99.90;;;;;;5019300;28;20041;-62
2023/07/16 01:58:21;;;;;;;10.43;4.15;;;17.50;99.90;;;;;;5014153;28;20034;-62
2023/07/16 02:00:48;;;;;;;7.80;3.25;;;17.50;99.90;;;;;;5011497;28;20057;-62
2023/07/16 02:03:13;;;;;;;9.15;3.40;;;17.50;99.90;;;;;;5008770;28;20038;-62
2023/07/16 02:05:39;;;;;;;8.68;3.20;;;17.60;99.90;;;;;;5009014;28;20129;-62
2023/07/16 02:08:05;;;;;;;7.47;3.55;;;17.50;99.90;;;;;;5013283;28;20068;-62
2023/07/16 02:10:31;;;;;;;6.75;3.50;;;17.50;99.90;;;;;;5021852;28;20116;-62
2023/07/16 02:12:56;;;;;;;8.63;2.90;;;17.60;99.90;;;;;;4994953;28;20042;-62
2023/07/16 02:15:22;;;;;;;7.60;2.90;;;17.50;99.90;;;;;;5017730;28;20446;-62
2023/07/16 02:17:48;;;;;;;7.53;3.10;;;17.60;99.90;;;;;;5014349;28;20121;-62
2023/07/16 02:20:13;;;;;;;8.02;3.50;;;17.50;99.90;;;;;;5013887;28;20036;-62
2023/07/16 02:22:39;;;;;;;7.70;3.28;;;17.50;99.90;;;;;;5012765;28;20034;-62
2023/07/16 02:25:05;;;;;;;5.53;3.30;;;17.50;99.90;;;;;;5021554;28;20037;-62
2023/07/16 02:27:31;;;;;;;7.85;3.15;;;17.40;99.90;;;;;;5010593;28;20456;-62
2023/07/16 02:29:57;;;;;;;8.90;3.55;;;17.40;99.90;;;;;;5011605;28;20041;-62
2023/07/16 02:32:23;;;;;;;8.13;3.42;;;17.40;99.90;;;;;;5011147;28;20141;-62
2023/07/16 02:34:49;;;;;;;8.95;3.00;;;17.30;99.90;;;;;;5010211;28;20400;-61
2023/07/16 02:37:14;;;;;;;7.95;3.35;;;17.30;99.90;;;;;;5017091;28;20539;-62
2023/07/16 02:39:42;;;;;;;6.38;3.20;;;17.30;99.90;;;;;;5025052;28;20041;-62
2023/07/16 02:42:08;;;;;;;9.13;3.50;;;17.30;99.90;;;;;;5019530;28;20049;-62
2023/07/16 02:44:35;;;;;;;10.18;3.40;;;17.20;99.90;;;;;;5013283;28;20044;-62
2023/07/16 02:47:01;;;;;;;7.40;2.92;;;17.20;99.90;;;;;;5010764;28;20038;-62
2023/07/16 02:49:27;;;;;;;8.02;3.08;;;17.20;99.90;;;;;;5009928;28;20148;-62
2023/07/16 02:51:52;;;;;;;7.75;3.28;;;17.10;99.90;;;;;;5010065;28;20101;-62
2023/07/16 02:54:18;;;;;;;11.05;3.38;;;17.20;99.90;;;;;;5024345;28;20037;-61
2023/07/16 02:56:43;;;;;;;8.70;3.30;;;17.10;99.90;;;;;;5030509;28;20037;-61
2023/07/16 02:59:09;;;;;;;10.60;3.67;;;17.20;99.90;;;;;;5023462;28;20026;-61
2023/07/16 03:01:34;;;;;;;9.85;3.45;;;17.20;99.90;;;;;;5009191;28;20119;-61
2023/07/16 03:04:00;;;;;;;7.03;3.30;;;17.20;99.90;;;;;;5010778;28;20034;-61
2023/07/16 03:06:26;;;;;;;9.57;3.55;;;17.20;99.90;;;;;;5010791;28;20396;-61
2023/07/16 03:08:51;;;;;;;13.25;3.78;;;17.20;99.90;;;;;;5020201;28;20044;-61
2023/07/16 03:11:17;;;;;;;8.80;3.78;;;17.20;99.90;;;;;;5020667;28;20404;-61
2023/07/16 03:13:43;;;;;;;8.93;3.75;;;17.10;99.90;;;;;;5028098;28;20048;-62
2023/07/16 03:16:08;;;;;;;8.88;4.20;;;17.10;99.90;;;;;;5022341;28;20069;-61
2023/07/16 03:18:34;;;;;;;7.63;3.78;;;17.10;99.90;;;;;;5010146;28;20042;-61
2023/07/16 03:20:59;;;;;;;10.77;3.97;;;17.10;99.90;;;;;;5010859;28;20037;-61
2023/07/16 03:23:25;;;;;;;12.70;3.90;;;17.10;99.90;;;;;;5018914;28;20547;-61
2023/07/16 03:25:52;;;;;;;10.32;3.85;;;17.10;99.90;;;;;;5020058;28;20030;-61
2023/07/16 03:28:17;;;;;;;13.15;4.07;;;17.10;99.90;;;;;;5020684;28;20073;-61
2023/07/16 03:30:51;;;;;;;8.30;3.25;;;17.00;99.90;;;;;;5014511;28;20061;-61
2023/07/16 03:33:17;;;;;;;8.63;3.45;;;17.00;99.90;;;;;;5017195;28;20038;-61
2023/07/16 03:35:43;;;;;;;8.85;3.45;;;17.00;99.90;;;;;;5008213;28;20037;-61
2023/07/16 03:38:10;;;;;;;9.40;3.55;;;17.00;99.90;;;;;;5011158;28;20092;-61
2023/07/16 03:40:36;;;;;;;10.13;3.33;;;17.00;99.90;;;;;;5020409;28;20056;-62
2023/07/16 03:43:01;;;;;;;12.65;4.20;;;16.90;99.90;;;;;;5011868;28;20112;-62
2023/07/16 03:45:27;;;;;;;8.75;3.33;;;16.90;99.90;;;;;;5013276;28;20045;-62
2023/07/16 03:47:53;;;;;;;7.55;3.63;;;16.90;99.90;;;;;;5010995;28;20042;-62
2023/07/16 03:50:18;;;;;;;8.45;3.53;;;16.90;99.90;;;;;;5009165;28;20420;-62
2023/07/16 03:52:44;;;;;;;6.22;3.40;;;16.90;99.90;;;;;;5010177;28;20065;-62
2023/07/16 03:55:10;;;;;;;12.80;3.17;;;16.90;99.90;;;;;;5008985;28;20037;-62
2023/07/16 03:57:36;;;;;;;8.77;3.83;;;16.90;99.90;;;;;;5011251;28;20068;-62
2023/07/16 04:00:07;;;;;;;9.95;4.20;;;16.90;99.90;;;;;;5010112;28;20057;-62
2023/07/16 04:02:33;;;;;;;11.60;3.83;;;16.90;99.90;;;;;;5005182;28;20095;-62
2023/07/16 04:04:59;;;;;;;10.60;3.75;;;16.90;99.90;;;;;;5005401;28;20110;-62
2023/07/16 04:07:24;;;;;;;8.93;3.75;;;16.90;99.90;;;;;;5004550;28;20054;-62
2023/07/16 04:09:50;;;;;;;11.57;3.72;;;16.90;99.90;;;;;;5008552;28;20128;-62
2023/07/16 04:12:16;;;;;;;14.50;3.85;;;16.90;99.90;;;;;;5014818;28;20037;-62
2023/07/16 04:14:41;;;;;;;11.63;4.53;;;16.90;99.90;;;;;;5015245;28;20049;-61
2023/07/16 04:17:07;;;;;;;10.27;3.75;;;16.90;99.90;;;;;;5019753;28;20103;-61
2023/07/16 04:19:33;;;;;;;10.38;3.88;;;16.90;99.90;;;;;;5025836;28;20111;-61
2023/07/16 04:21:59;;;;;;;10.65;4.68;;;16.90;99.90;;;;;;5010309;28;20072;-62
2023/07/16 04:24:26;;;;;;;10.60;4.40;;;16.90;99.90;;;;;;5016407;28;20061;-62
2023/07/16 04:26:55;;;;;;;10.13;3.85;;;16.90;99.90;;;;;;5022341;28;20141;-61
2023/07/16 04:29:22;;;;;;;8.50;3.85;;;16.90;99.90;;;;;;5008769;28;20034;-61
2023/07/16 04:31:47;;;;;;;8.02;3.78;;;16.90;99.90;;;;;;5026235;28;20446;-62
2023/07/16 04:34:13;;;;;;;11.60;3.47;;;16.90;99.90;;;;;;5016945;28;20042;-62
2023/07/16 04:36:39;;;;;;;9.55;3.72;;;16.90;99.90;;;;;;5005831;28;20030;-63
2023/07/16 04:39:04;;;;;;;8.55;3.85;;;17.00;99.90;;;;;;5010277;28;20480;-63
2023/07/16 04:41:30;;;;;;;9.95;3.55;;;16.90;99.90;;;;;;5016517;28;20092;-62
2023/07/16 04:43:56;;;;;;;11.95;3.67;;;17.00;99.90;;;;;;5016424;28;20419;-68
2023/07/16 04:46:22;;;;;;;12.52;3.90;;;17.00;99.90;;;;;;5012356;28;20044;-68
2023/07/16 04:48:47;;;;;;;9.23;3.60;;;17.00;99.90;;;;;;5014720;28;20038;-66
2023/07/16 04:51:13;;;;;;;9.60;5.03;;;17.00;99.90;;;;;;5009226;28;20510;-67
2023/07/16 04:53:38;;;;;;;9.88;3.50;;;17.00;99.90;;;;;;5011290;28;20116;-67
2023/07/16 04:56:06;;;;;;;6.95;3.50;;;17.10;99.90;;;;;;5011160;28;20457;-68
2023/07/16 04:58:32;;;;;;;9.38;3.35;;;17.10;99.90;;;;;;5011476;28;20042;-67
2023/07/16 05:00:57;;;;;;;10.30;3.78;;;17.10;99.90;;;;;;5011127;28;20033;-67
2023/07/16 05:03:23;;;;;;;9.90;3.97;;;17.10;99.90;;;;;;5048762;22;20037;-66
2023/07/16 05:05:48;;;;;;;10.45;3.60;;;17.20;99.90;;;;;;5087315;28;20071;-66
2023/07/16 05:08:14;;;;;;;7.15;3.35;;;17.20;99.90;;;;;;5074171;28;20032;-66
2023/07/16 05:10:40;;;;;;;9.07;3.67;;;17.30;99.90;;;;;;5078222;28;20109;-66
2023/07/16 05:13:05;;;;;;;9.65;3.60;;;17.40;99.90;;;;;;5086475;28;20440;-66
2023/07/16 05:15:32;;;;;;;6.55;3.63;;;17.50;99.90;;;;;;5074480;28;20040;-66
2023/07/16 05:17:57;;;;;;;11.95;3.40;;;17.40;99.90;;;;;;5074893;28;20095;-66
2023/07/16 05:20:23;;;;;;;7.70;3.53;;;17.50;99.90;;;;;;5059041;28;20072;-66
2023/07/16 05:22:50;;;;;;;8.90;3.50;;;17.60;99.90;;;;;;5063026;28;20399;-66
2023/07/16 05:25:16;;;;;;;8.80;3.90;;;17.70;99.90;;;;;;5054058;28;20033;-66
2023/07/16 05:27:41;;;;;;;9.50;3.42;;;17.70;99.90;;;;;;5060654;28;20089;-66
2023/07/16 05:30:07;;;;;;;11.43;3.67;;;17.70;99.90;;;;;;5065842;28;20501;-66
2023/07/16 05:32:33;;;;;;;7.03;3.78;;;17.80;99.90;;;;;;5074661;28;20051;-66
2023/07/16 05:34:59;;;;;;;7.32;3.65;;;17.80;99.90;;;;;;5053006;28;20037;-66
2023/07/16 05:37:24;;;;;;;9.00;3.80;;;17.90;99.90;;;;;;5052003;28;20453;-66
2023/07/16 05:39:50;;;;;;;11.73;3.85;;;18.00;99.90;;;;;;5053037;28;20029;-66
2023/07/16 05:42:15;;;;;;;8.55;3.53;;;18.00;99.90;;;;;;5053924;28;20029;-66
2023/07/16 05:44:41;;;;;;;8.38;3.22;;;18.00;99.90;;;;;;5055854;28;20029;-66
2023/07/16 05:47:08;;;;;;;7.55;2.92;;;18.00;99.90;;;;;;5064186;28;20044;-66
2023/07/16 05:49:34;;;;;;;11.07;3.95;;;18.10;99.90;;;;;;5074112;28;20452;-66
2023/07/16 05:52:00;;;;;;;8.48;3.83;;;18.20;99.90;;;;;;5073714;28;20040;-66
2023/07/16 05:54:25;;;;;;;8.63;3.78;;;18.20;99.90;;;;;;5050683;28;20405;-66
2023/07/16 05:56:51;;;;;;;9.00;3.80;;;18.20;99.90;;;;;;5052544;28;20051;-66
2023/07/16 05:59:16;;;;;;;9.70;4.18;;;18.20;99.90;;;;;;5054006;28;20501;-66
2023/07/16 06:01:42;;;;;;;11.40;4.40;;;18.10;99.90;;;;;;5062434;28;20040;-67
2023/07/16 06:04:07;;;;;;;10.48;4.50;;;18.20;99.90;;;;;;5053287;28;20075;-66
2023/07/16 06:06:33;;;;;;;11.27;3.92;;;18.20;99.90;;;;;;5053449;28;20487;-66
2023/07/16 06:08:59;;;;;;;10.52;4.25;;;18.30;99.90;;;;;;5055381;28;20033;-67
2023/07/16 06:11:24;;;;;;;9.05;3.97;;;18.30;99.90;;;;;;5061438;28;20429;-67
2023/07/16 06:13:52;;;;;;;9.10;4.30;;;18.40;99.90;;;;;;5054841;28;20037;-67
2023/07/16 06:16:18;;;;;;;8.57;4.60;;;18.40;99.90;;;;;;5061801;28;20058;-66
2023/07/16 06:18:43;;;;;;;9.02;4.32;;;18.50;99.90;;;;;;5055083;28;20525;-66
2023/07/16 06:21:09;;;;;;;13.68;4.63;;;18.50;99.90;;;;;;5052469;28;20052;-66
2023/07/16 06:23:35;;;;;;;7.57;4.18;;;18.60;99.90;;;;;;5060193;28;20116;-66
2023/07/16 06:26:00;;;;;;;9.20;4.40;;;18.60;99.90;;;;;;5071800;28;20406;-66
2023/07/16 06:28:26;;;;;;;9.65;4.53;;;18.70;99.90;;;;;;5073256;28;20060;-66
2023/07/16 06:30:54;;;;;;;6.63;4.07;;;18.80;99.90;;;;;;5067092;28;20076;-66
2023/07/16 06:33:20;;;;;;;10.50;4.10;;;18.80;99.90;;;;;;5066170;28;20041;-66
2023/07/16 06:35:47;;;;;;;11.65;4.10;;;18.90;99.90;;;;;;5073417;28;20039;-66
2023/07/16 06:38:13;;;;;;;8.38;4.05;;;19.10;99.90;;;;;;5061063;28;20349;-66
2023/07/16 06:40:39;;;;;;;10.82;4.35;;;19.20;99.90;;;;;;5057627;28;20049;-66
2023/07/16 06:43:05;;;;;;;9.88;3.95;;;19.20;99.90;;;;;;5035780;28;20478;-66
2023/07/16 06:45:30;;;;;;;9.02;4.40;;;19.20;99.90;;;;;;5050777;28;20040;-66
2023/07/16 06:47:56;;;;;;;9.20;4.40;;;19.30;99.90;;;;;;5062441;28;20033;-66
2023/07/16 06:50:22;;;;;;;9.20;4.70;;;19.30;99.90;;;;;;5073322;28;20067;-67
2023/07/16 06:52:47;;;;;;;8.50;4.10;;;19.40;99.90;;;;;;5066386;28;20407;-66
2023/07/16 06:55:13;;;;;;;9.18;4.15;;;19.40;99.90;;;;;;5064459;28;20028;-66
2023/07/16 06:57:38;;;;;;;8.30;3.65;;;19.50;99.90;;;;;;5072827;28;20094;-67
2023/07/16 07:00:06;;;;;;;11.48;4.32;;;19.50;99.90;;;;;;5072378;28;20490;-66
2023/07/16 07:02:31;;;;;;;9.18;4.38;;;19.60;99.90;;;;;;5059929;28;20494;-67
2023/07/16 07:04:58;;;;;;;8.38;4.05;;;19.60;99.90;;;;;;5064443;28;20109;-67
2023/07/16 07:07:23;;;;;;;10.82;4.10;;;19.60;99.90;;;;;;5063849;28;20037;-66
2023/07/16 07:09:49;;;;;;;11.07;3.72;;;19.70;99.90;;;;;;5050445;28;20063;-66
2023/07/16 07:12:15;;;;;;;12.73;5.07;;;19.70;99.90;;;;;;5072532;28;20032;-66
2023/07/16 07:14:40;;;;;;;8.85;3.90;;;19.80;99.90;;;;;;5072686;28;20036;-67
2023/07/16 07:17:06;;;;;;;12.20;4.00;;;19.90;99.90;;;;;;5061877;28;20051;-66
2023/07/16 07:19:32;;;;;;;10.68;4.05;;;20.00;99.90;;;;;;5063019;28;20036;-66
2023/07/16 07:21:58;;;;;;;9.23;4.50;;;20.10;99.90;;;;;;5072119;28;20040;-66
2023/07/16 07:24:23;;;;;;;8.02;4.20;;;20.20;99.90;;;;;;5072533;28;20040;-66
2023/07/16 07:26:49;;;;;;;9.88;4.40;;;20.20;99.90;;;;;;5067910;28;20036;-66
2023/07/16 07:29:14;;;;;;;10.18;4.45;;;20.40;99.90;;;;;;5064752;28;20170;-66
2023/07/16 07:31:40;;;;;;;8.60;4.65;;;20.30;99.90;;;;;;5068876;28;20032;-66
2023/07/16 07:34:05;;;;;;;10.35;4.57;;;20.50;99.90;;;;;;5061708;28;20045;-66
2023/07/16 07:36:31;;;;;;;8.15;3.97;;;20.50;99.90;;;;;;5071811;28;20391;-66
2023/07/16 07:38:57;;;;;;;9.43;4.45;;;20.50;99.90;;;;;;5072518;28;20098;-65
2023/07/16 07:41:22;;;;;;;9.07;4.47;;;20.50;99.90;;;;;;5072214;28;20128;-66
2023/07/16 07:43:48;;;;;;;12.55;4.63;;;20.70;99.90;;;;;;5065699;28;20124;-66
2023/07/16 07:46:13;;;;;;;8.55;4.03;;;20.70;99.90;;;;;;5051818;28;20040;-65
2023/07/16 07:48:39;;;;;;;10.60;4.38;;;20.70;99.90;;;;;;5058325;28;20040;-66
2023/07/16 07:51:04;;;;;;;6.72;3.42;;;20.80;99.90;;;;;;5062877;28;20194;-66
2023/07/16 07:53:30;;;;;;;8.82;4.05;;;20.80;99.90;;;;;;5072004;28;20037;-66
2023/07/16 07:55:56;;;;;;;9.40;4.18;;;20.80;99.90;;;;;;5072211;28;20044;-66
2023/07/16 07:58:22;;;;;;;10.07;4.35;;;20.90;99.90;;;;;;5072049;28;20036;-66
2023/07/16 08:00:48;;;;;;;7.95;3.90;;;21.00;99.90;;;;;;5072024;28;20434;-66
2023/07/16 08:03:13;;;;;;;9.70;4.03;;;21.20;99.90;;;;;;5046717;28;20033;-66
2023/07/16 08:05:39;;;;;;;9.32;4.63;;;21.30;99.90;;;;;;5058521;28;20292;-66
2023/07/16 08:08:04;;;;;;;8.45;3.92;;;21.40;99.90;;;;;;5057646;28;20045;-66
2023/07/16 08:10:30;;;;;;;7.40;3.65;;;21.40;99.90;;;;;;5051785;28;20033;-66
2023/07/16 08:12:56;;;;;;;10.40;4.07;;;21.50;99.90;;;;;;5052016;28;20478;-66
2023/07/16 08:15:21;;;;;;;10.35;4.00;;;21.60;99.90;;;;;;5051291;28;20043;-66
2023/07/16 08:17:47;;;;;;;14.23;4.30;;;21.60;99.90;;;;;;5050201;28;20045;-66
2023/07/16 08:20:13;;;;;;;8.40;4.18;;;21.60;99.90;;;;;;5049474;28;20033;-65
2023/07/16 08:22:39;;;;;;;7.95;4.00;;;21.60;99.90;;;;;;5051294;28;20048;-66
2023/07/16 08:25:06;;;;;;;8.63;4.13;;;21.60;99.90;;;;;;5050775;28;20032;-66
2023/07/16 08:27:31;;;;;;;7.22;3.63;;;21.50;99.90;;;;;;5049918;28;20048;-66
2023/07/16 08:29:57;;;;;;;7.53;4.13;;;21.50;99.90;;;;;;5051611;28;20036;-66
2023/07/16 08:32:23;;;;;;;9.07;3.78;;;21.50;99.90;;;;;;5051278;28;20502;-66
2023/07/16 08:34:49;;;;;;;10.35;4.10;;;21.40;99.90;;;;;;5058004;28;20508;-66
2023/07/16 08:37:15;;;;;;;8.63;3.88;;;21.30;99.90;;;;;;5056789;28;20451;-66
2023/07/16 08:39:41;;;;;;;7.53;3.75;;;21.30;99.90;;;;;;5063321;28;20407;-66
2023/07/16 08:42:09;;;;;;;11.63;4.60;;;21.20;99.90;;;;;;5070966;28;20045;-66
2023/07/16 08:44:37;;;;;;;8.13;4.18;;;21.10;99.90;;;;;;5053379;28;20044;-66
2023/07/16 08:47:03;;;;;;;10.63;4.30;;;21.00;99.90;;;;;;5065285;28;20049;-66
2023/07/16 08:49:30;;;;;;;7.82;4.10;;;20.90;99.90;;;;;;5069765;28;20040;-66
2023/07/16 08:51:56;;;;;;;7.60;3.90;;;20.80;99.90;;;;;;5064402;28;20469;-66
2023/07/16 08:54:22;;;;;;;11.10;4.00;;;20.70;99.90;;;;;;5075426;28;20075;-66
2023/07/16 08:56:48;;;;;;;9.20;4.60;;;20.60;99.90;;;;;;5067483;28;20388;-66
2023/07/16 08:59:18;;;;;;;10.52;4.85;;;20.50;99.90;;;;;;5066982;28;20043;-66
2023/07/16 09:01:44;;;;;;;10.50;4.53;;;20.50;99.90;;;;;;5063688;28;20048;-66
2023/07/16 09:04:09;;;;;;;10.30;4.45;;;20.40;99.90;;;;;;5054936;28;20041;-66
2023/07/16 09:06:35;;;;;;;9.27;4.50;;;20.40;99.90;;;;;;5061606;28;20033;-66
2023/07/16 09:09:00;;;;;;;9.10;3.95;;;20.40;99.90;;;;;;5073191;28;20040;-66
2023/07/16 09:11:27;;;;;;;11.35;4.63;;;20.60;99.90;;;;;;5075292;28;20119;-66
2023/07/16 09:13:52;;;;;;;8.40;4.22;;;20.80;99.90;;;;;;5074027;28;20098;-66
2023/07/16 09:16:20;;;;;;;11.10;4.38;;;21.10;99.90;;;;;;5064019;28;20507;-66
2023/07/16 09:18:46;;;;;;;8.07;3.88;;;21.40;99.90;;;;;;5051188;28;20406;-66
2023/07/16 09:21:12;;;;;;;9.80;4.50;;;21.50;99.90;;;;;;5045042;28;20029;-66
2023/07/16 09:23:38;;;;;;;8.05;4.15;;;21.40;99.90;;;;;;5053550;28;20037;-66
2023/07/16 09:26:03;;;;;;;7.50;3.45;;;21.30;99.90;;;;;;5054346;28;20029;-65
2023/07/16 09:28:31;;;;;;;8.40;4.43;;;21.20;99.90;;;;;;5046816;28;20091;-65
2023/07/16 09:31:07;;;;;;;8.63;3.97;;;21.10;99.90;;;;;;5049106;28;20041;-66
2023/07/16 09:33:33;;;;;;;7.45;3.83;;;21.20;99.90;;;;;;5051267;28;20045;-65
2023/07/16 09:35:59;;;;;;;9.25;4.05;;;21.20;99.90;;;;;;5049460;28;20051;-65
2023/07/16 09:38:26;;;;;;;9.68;4.28;;;21.30;99.90;;;;;;5052809;28;20037;-66
2023/07/16 09:40:53;;;;;;;9.60;4.40;;;21.50;99.90;;;;;;5052432;28;20032;-66
2023/07/16 09:43:20;;;;;;;7.93;4.18;;;21.50;99.90;;;;;;5051600;28;20033;-66
2023/07/16 09:45:46;;;;;;;7.78;4.13;;;21.40;99.90;;;;;;5052131;28;20045;-66
2023/07/16 09:48:13;;;;;;;10.38;4.45;;;21.30;99.90;;;;;;5051916;28;20094;-66
2023/07/16 09:50:48;;;;;;;7.95;4.20;;;21.20;99.90;;;;;;5042878;28;20482;-65
2023/07/16 09:53:15;;;;;;;6.85;4.35;;;21.10;99.90;;;;;;5053451;28;20041;-66
2023/07/16 09:55:41;;;;;;;10.35;5.00;;;21.00;99.90;;;;;;5053937;28;20437;-65
2023/07/16 09:58:11;;;;;;;16.38;4.80;;;21.10;99.90;;;;;;5053470;28;20048;-66
2023/07/16 10:00:39;;;;;;;11.38;4.47;;;21.10;99.90;;;;;;5053595;28;20045;-66
2023/07/16 10:03:09;;;;;;;10.40;4.68;;;21.30;99.90;;;;;;5052483;28;20033;-66
2023/07/16 10:05:38;;;;;;;10.00;4.43;;;21.50;99.90;;;;;;5050313;28;20025;-65
2023/07/16 10:08:04;;;;;;;5.93;4.20;;;21.60;99.90;;;;;;5051315;28;20049;-65
2023/07/16 10:10:39;;;;;;;11.40;4.50;;;21.60;99.90;;;;;;5050031;28;20032;-66
2023/07/16 10:13:07;;;;;;;9.75;4.70;;;21.60;99.90;;;;;;5044538;28;20372;-66
2023/07/16 10:15:33;;;;;;;8.98;4.55;;;21.50;99.90;;;;;;5050650;28;22023;-66
2023/07/16 10:17:58;;;;;;;9.13;4.40;;;21.40;99.90;;;;;;5050149;28;20792;-66
2023/07/16 10:20:30;;;;;;;10.52;4.80;;;21.40;99.90;;;;;;5053184;28;20505;-66
2023/07/16 10:22:55;;;;;;;8.00;4.70;;;21.40;99.90;;;;;;5054091;28;20072;-65
2023/07/16 10:25:22;;;;;;;11.05;4.78;;;21.50;99.90;;;;;;5068527;28;20037;-66
2023/07/16 10:27:50;;;;;;;7.45;4.35;;;21.60;99.90;;;;;;5048442;28;20056;-66
2023/07/16 10:30:16;;;;;;;10.63;4.35;;;21.50;99.90;;;;;;5055369;28;20083;-66
2023/07/16 10:32:43;;;;;;;9.68;4.75;;;21.40;99.90;;;;;;5050793;28;20430;-66
2023/07/16 10:35:09;;;;;;;10.30;4.30;;;21.20;99.90;;;;;;5049984;28;20037;-66
2023/07/16 10:37:35;;;;;;;10.07;4.65;;;21.00;99.90;;;;;;5050163;28;20037;-66
2023/07/16 10:40:06;;;;;;;10.07;5.18;;;20.90;99.90;;;;;;5052700;28;20037;-66
2023/07/16 10:42:32;;;;;;;10.13;4.80;;;20.80;99.90;;;;;;5072435;28;20102;-66
2023/07/16 10:45:00;;;;;;;8.98;4.82;;;20.80;99.90;;;;;;5055887;28;20037;-66
2023/07/16 10:47:29;;;;;;;10.02;4.78;;;20.90;99.90;;;;;;5052849;28;20045;-66
2023/07/16 10:49:55;;;;;;;7.05;4.30;;;20.90;99.90;;;;;;5056362;28;20116;-65
2023/07/16 10:52:24;;;;;;;6.70;4.13;;;21.10;99.90;;;;;;5051898;28;20075;-65
2023/07/16 10:54:51;;;;;;;7.97;4.05;;;21.20;99.90;;;;;;5050957;28;20107;-66
2023/07/16 10:57:19;;;;;;;8.63;3.78;;;21.20;99.90;;;;;;5048789;28;20040;-66
2023/07/16 10:59:45;;;;;;;7.72;3.67;;;21.30;99.90;;;;;;5044641;28;20065;-66
2023/07/16 11:02:13;;;;;;;6.57;3.53;;;21.30;99.90;;;;;;5052684;28;20037;-65
2023/07/16 11:04:39;;;;;;;7.00;3.65;;;21.20;99.90;;;;;;5066641;22;20071;-68
2023/07/16 11:07:11;;;;;;;8.55;3.70;;;21.20;99.90;;;;;;5050553;28;20037;-68
2023/07/16 11:10:03;;;;;;;7.88;4.30;;;21.20;99.90;;;;;;5050193;28;20041;-67
2023/07/16 11:12:29;;;;;;;12.95;4.53;;;21.30;99.90;;;;;;5036815;28;20446;-68
2023/07/16 11:14:56;;;;;;;5.90;3.58;;;21.40;99.90;;;;;;5025062;28;20046;-68
2023/07/16 11:17:22;;;;;;;7.13;4.18;;;21.60;99.90;;;;;;5029776;28;20033;-67
2023/07/16 11:19:50;;;;;;;9.60;4.63;;;21.80;99.90;;;;;;5027218;28;20120;-68
2023/07/16 11:22:16;;;;;;;7.93;4.53;;;21.80;99.90;;;;;;5034500;28;20033;-67
2023/07/16 11:24:46;;;;;;;13.65;4.68;;;21.90;99.90;;;;;;5032393;28;20099;-68
2023/07/16 11:27:14;;;;;;;;;;;22.00;99.90;;;;;;5028046;28;20053;-67
2023/07/16 11:29:41;;;;;;;7.82;4.68;;;22.10;99.90;;;;;;5030486;28;19925;-68
2023/07/16 11:32:07;;;;;;;9.32;5.13;;;22.30;99.90;;;;;;5032261;28;20041;-68
2023/07/16 11:34:33;;;;;;;9.32;4.80;;;22.60;99.90;;;;;;5043017;28;20571;-67
2023/07/16 11:37:09;;;;;;;8.52;4.32;;;22.60;99.90;;;;;;5036840;28;20473;-68
2023/07/16 11:39:35;;;;;;;9.73;4.43;;;22.50;99.90;;;;;;5029501;28;20442;-68
2023/07/16 11:42:02;;;;;;;7.80;4.20;;;22.40;99.90;;;;;;5029685;28;20034;-67
2023/07/16 11:44:36;;;;;;;9.80;4.10;;;22.10;99.90;;;;;;5028845;28;20076;-68
2023/07/16 11:47:03;;;;;;;10.18;4.22;;;21.90;99.90;;;;;;5029431;28;20046;-67
2023/07/16 11:49:29;;;;;;;8.40;4.30;;;21.70;99.90;;;;;;5030626;28;20065;-67
2023/07/16 11:51:56;;;;;;;7.95;3.65;;;21.60;99.80;;;;;;5023031;28;20076;-67
2023/07/16 11:54:21;;;;;;;11.23;4.30;;;21.50;99.90;;;;;;5027781;28;20041;-67
2023/07/16 11:56:47;;;;;;;8.90;4.20;;;21.40;99.90;;;;;;5028552;28;20038;-67
2023/07/16 11:59:13;;;;;;;11.15;4.28;;;21.40;99.90;;;;;;5029770;28;20372;-68
2023/07/16 12:01:39;;;;;;;8.52;3.85;;;21.40;99.90;;;;;;5029866;28;20056;-68
2023/07/16 12:04:04;;;;;;;8.20;4.45;;;21.40;99.90;;;;;;5030266;28;20129;-68
2023/07/16 12:06:30;;;;;;;10.32;4.38;;;21.40;99.90;;;;;;5028222;28;21074;-67
2023/07/16 12:08:56;;;;;;;7.60;4.53;;;21.40;99.90;;;;;;5043697;28;20384;-67
2023/07/16 12:11:22;;;;;;;11.45;4.35;;;21.40;99.90;;;;;;5030303;28;20037;-67
2023/07/16 12:13:48;;;;;;;6.90;3.90;;;21.40;99.90;;;;;;5028610;28;20068;-68
2023/07/16 12:16:13;;;;;;;10.77;3.85;;;21.30;99.90;;;;;;5013496;28;20045;-67
2023/07/16 12:18:39;;;;;;;6.38;3.83;;;21.30;99.90;;;;;;5029597;28;20170;-68
2023/07/16 12:21:06;;;;;;;10.05;4.35;;;21.40;99.90;;;;;;5031500;28;20038;-68
2023/07/16 12:23:31;;;;;;;7.05;4.25;;;21.40;99.90;;;;;;5029141;28;20034;-68
2023/07/16 12:25:57;;;;;;;10.05;4.10;;;21.50;99.90;;;;;;5027782;28;20041;-68
2023/07/16 12:28:22;;;;;;;10.30;4.10;;;21.50;99.90;;;;;;5029470;28;20513;-68
2023/07/16 12:30:48;;;;;;;7.80;4.30;;;21.60;99.90;;;;;;5031293;28;20037;-68
2023/07/16 12:33:13;;;;;;;12.70;4.22;;;21.50;99.90;;;;;;5028551;28;20056;-68
2023/07/16 12:35:39;;;;;;;7.68;3.92;;;21.60;99.90;;;;;;5030251;28;20037;-68
2023/07/16 12:38:05;;;;;;;9.32;4.30;;;21.60;99.90;;;;;;5028485;28;20141;-68
2023/07/16 12:40:30;;;;;;;9.15;4.30;;;21.60;99.90;;;;;;5029877;28;20415;-68